Terminal Aerodrome Forecast
Issued by NWS Louisville, KY

Home | Current Version | Previous Version | Text Only | Print | Product List | Glossary On
Versions: 1 2 3 4 5 6 7 8 9 10 11 12 13 14 15 16
000
FTUS43 KLMK 162008 AAA
TAFSDF
TAF AMD
KSDF 162008Z 1620/1724 21005KT P6SM FEW045 SCT060 BKN200
     FM162200 20006KT P6SM VCTS BKN040CB
     FM170000 VRB04KT P6SM BKN060 BKN250
     FM171200 21007KT P6SM BKN070 BKN250=

USA.gov is the U.S. government's official web portal to all federal, state and local government web resources and services.